Time;durP1;ratioP1;P1;durP2;ratioP2;P2;SDS_P1;SDS_P2;PMS_P1;PMS_P2;Temp;Humidity;BMP_temperature;BMP_pressure;BME280_temperature;BME280_humidity;BME280_pressure;Samples;Min_cycle;Max_cycle;Signal;HPM_P1;HPM_P2
2023/07/25 00:01:18;;;;;;;;;;;13.20;99.90;;;;;;5142204;27;19911;-43
2023/07/25 00:03:45;;;;;;;;;;;13.20;99.90;;;;;;5136064;27;20270;-44
2023/07/25 00:06:11;;;;;;;;;;;13.20;99.90;;;;;;5136870;27;20040;-46
2023/07/25 00:08:36;;;;;;;;;;;13.20;99.90;;;;;;5136288;27;20365;-46
2023/07/25 00:11:02;;;;;;;;;;;13.10;99.90;;;;;;5136724;27;20376;-45
2023/07/25 00:13:28;;;;;;;;;;;13.10;99.90;;;;;;5136558;27;20324;-43
2023/07/25 00:15:53;;;;;;;;;;;13.10;99.90;;;;;;5135834;27;20226;-42
2023/07/25 00:18:19;;;;;;;;;;;13.10;99.90;;;;;;5136517;27;19955;-46
2023/07/25 00:20:44;;;;;;;;;;;13.10;99.90;;;;;;5136528;27;19911;-44
2023/07/25 00:23:09;;;;;;;;;;;13.00;99.90;;;;;;5135834;27;19907;-42
2023/07/25 00:25:35;;;;;;;;;;;13.00;99.90;;;;;;5136451;27;20042;-44
2023/07/25 00:28:00;;;;;;;;;;;13.00;99.90;;;;;;5136563;27;19907;-43
2023/07/25 00:30:26;;;;;;;;;;;13.00;99.90;;;;;;5135636;27;19911;-44
2023/07/25 00:32:51;;;;;;;;;;;13.00;99.90;;;;;;5136415;27;19908;-44
2023/07/25 00:35:17;;;;;;;;;;;12.90;99.90;;;;;;5136382;27;19913;-43
2023/07/25 00:37:42;;;;;;;;;;;12.90;99.90;;;;;;5135478;27;19968;-44
2023/07/25 00:40:08;;;;;;;;;;;12.90;99.90;;;;;;5135405;27;19911;-42
2023/07/25 00:42:33;;;;;;;;;;;12.90;99.90;;;;;;5147544;27;19984;-43
2023/07/25 00:44:59;;;;;;;;;;;12.80;99.90;;;;;;5155923;27;19911;-45
2023/07/25 00:47:25;;;;;;;;;;;12.80;99.90;;;;;;5156783;27;19907;-45
2023/07/25 00:49:50;;;;;;;;;;;12.80;99.90;;;;;;5156842;27;19907;-43
2023/07/25 00:52:16;;;;;;;;;;;12.80;99.90;;;;;;5156133;27;20001;-42
2023/07/25 00:54:45;;;;;;;;;;;12.70;99.90;;;;;;5156686;27;19907;-43
2023/07/25 00:57:11;;;;;;;;;;;12.70;99.90;;;;;;5156617;27;19934;-42
2023/07/25 00:59:37;;;;;;;;;;;12.70;99.90;;;;;;5155859;27;20490;-46
2023/07/25 01:02:02;;;;;;;;;;;12.70;99.90;;;;;;5156715;27;19907;-43
2023/07/25 01:04:28;;;;;;;;;;;12.80;99.90;;;;;;5156446;27;19962;-43
2023/07/25 01:06:53;;;;;;;;;;;12.70;99.90;;;;;;5155603;27;19911;-45
2023/07/25 01:09:38;;;;;;;;;;;12.70;99.90;;;;;;5156297;27;19914;-43
2023/07/25 01:12:04;;;;;;;;;;;12.80;99.90;;;;;;5147183;27;20312;-43
2023/07/25 01:14:31;;;;;;;;;;;12.80;99.90;;;;;;5135497;27;19912;-44
2023/07/25 01:16:57;;;;;;;;;;;12.90;99.90;;;;;;5135409;27;20441;-43
2023/07/25 01:19:26;;;;;;;;;;;12.80;99.90;;;;;;5134746;27;19975;-47
2023/07/25 01:21:52;;;;;;;;;;;12.80;99.90;;;;;;5135413;27;20286;-44
2023/07/25 01:24:17;;;;;;;;;;;12.80;99.90;;;;;;5135298;27;19915;-46
2023/07/25 01:26:43;;;;;;;;;;;12.70;99.90;;;;;;5134525;27;19908;-42
2023/07/25 01:29:08;;;;;;;;;;;12.70;99.90;;;;;;5135275;27;19932;-44
2023/07/25 01:31:34;;;;;;;;;;;12.60;99.90;;;;;;5135227;27;19947;-42
2023/07/25 01:33:59;;;;;;;;;;;12.60;99.90;;;;;;5134417;27;19911;-43
2023/07/25 01:36:25;;;;;;;;;;;12.50;99.90;;;;;;5135140;27;19907;-44
2023/07/25 01:38:50;;;;;;;;;;;12.50;99.90;;;;;;5116617;27;19942;-43
2023/07/25 01:41:15;;;;;;;;;;;12.50;99.90;;;;;;5134127;27;20010;-42
2023/07/25 01:43:41;;;;;;;;;;;12.50;99.90;;;;;;5134718;27;20294;-45
2023/07/25 01:46:06;;;;;;;;;;;12.50;99.90;;;;;;5134960;27;19908;-43
2023/07/25 01:48:32;;;;;;;;;;;12.50;99.90;;;;;;5134123;27;19907;-42
2023/07/25 01:50:57;;;;;;;;;;;12.60;99.90;;;;;;5116117;27;19964;-45
2023/07/25 01:53:23;;;;;;;;;;;12.60;99.90;;;;;;5135725;27;19911;-48
2023/07/25 01:55:48;;;;;;;;;;;12.60;99.90;;;;;;5128553;27;19918;-42
2023/07/25 01:58:14;;;;;;;;;;;12.60;99.90;;;;;;5134567;27;20002;-43
2023/07/25 02:00:39;;;;;;;;;;;12.60;99.90;;;;;;5134516;27;19907;-44
2023/07/25 02:03:05;;;;;;;;;;;12.60;99.90;;;;;;5133758;27;19908;-42
2023/07/25 02:05:30;;;;;;;;;;;12.50;99.90;;;;;;5134541;27;19914;-43
2023/07/25 02:07:56;;;;;;;;;;;12.60;99.90;;;;;;5134509;27;19907;-43
2023/07/25 02:10:21;;;;;;;;;;;12.60;99.90;;;;;;5133581;27;19911;-44
2023/07/25 02:12:47;;;;;;;;;;;12.50;99.90;;;;;;5134418;27;19958;-42
2023/07/25 02:15:12;;;;;;;;;;;12.50;99.90;;;;;;5133950;27;19911;-47
2023/07/25 02:17:38;;;;;;;;;;;12.50;99.90;;;;;;5133953;27;19941;-44
2023/07/25 02:20:04;;;;;;;;;;;12.50;99.90;;;;;;5134373;27;19907;-43
2023/07/25 02:22:29;;;;;;;;;;;12.50;99.90;;;;;;5144381;27;19911;-45
2023/07/25 02:24:55;;;;;;;;;;;12.50;99.90;;;;;;5154875;27;19907;-44
2023/07/25 02:27:20;;;;;;;;;;;12.60;99.90;;;;;;5154884;27;19918;-42
2023/07/25 02:29:46;;;;;;;;;;;12.70;99.90;;;;;;5153750;27;20001;-43
2023/07/25 02:32:11;;;;;;;;;;;12.60;99.90;;;;;;5154873;27;19914;-42
2023/07/25 02:34:37;;;;;;;;;;;12.70;99.90;;;;;;5154760;27;19915;-43
2023/07/25 02:37:02;;;;;;;;;;;12.60;99.90;;;;;;5153995;27;19915;-43
2023/07/25 02:39:27;;;;;;;;;;;12.60;99.90;;;;;;5154700;27;19917;-44
2023/07/25 02:41:53;;;;;;;;;;;12.60;99.90;;;;;;5154601;27;20503;-46
2023/07/25 02:44:18;;;;;;;;;;;12.60;99.90;;;;;;5153976;27;20005;-44
2023/07/25 02:46:44;;;;;;;;;;;12.60;99.90;;;;;;5154615;27;20267;-44
2023/07/25 02:49:09;;;;;;;;;;;12.60;99.90;;;;;;5154631;27;19932;-44
2023/07/25 02:51:35;;;;;;;;;;;12.70;99.90;;;;;;5153668;27;19911;-42
2023/07/25 02:54:00;;;;;;;;;;;12.70;99.90;;;;;;5154511;27;19911;-43
2023/07/25 02:56:28;;;;;;;;;;;12.70;99.90;;;;;;5154471;27;19907;-44
2023/07/25 02:58:54;;;;;;;;;;;12.70;99.90;;;;;;5153658;27;20327;-43
2023/07/25 03:01:19;;;;;;;;;;;12.70;99.90;;;;;;5154640;27;19907;-44
2023/07/25 03:03:44;;;;;;;;;;;12.70;99.90;;;;;;5157578;27;19911;-43
2023/07/25 03:06:10;;;;;;;;;;;12.70;99.90;;;;;;5160608;27;20446;-43
2023/07/25 03:08:35;;;;;;;;;;;12.70;99.90;;;;;;5161252;27;19914;-43
2023/07/25 03:11:01;;;;;;;;;;;12.60;99.90;;;;;;5161309;27;20342;-44
2023/07/25 03:13:26;;;;;;;;;;;12.60;99.90;;;;;;5160580;27;19915;-43
2023/07/25 03:15:52;;;;;;;;;;;12.60;99.90;;;;;;5161290;27;19913;-44
2023/07/25 03:18:17;;;;;;;;;;;12.50;99.90;;;;;;5151567;27;19920;-45
2023/07/25 03:20:43;;;;;;;;;;;12.40;99.90;;;;;;5139713;27;19907;-41
2023/07/25 03:23:08;;;;;;;;;;;12.40;99.90;;;;;;5140605;27;20392;-43
2023/07/25 03:25:34;;;;;;;;;;;12.30;99.90;;;;;;5139637;27;19964;-48
2023/07/25 03:27:59;;;;;;;;;;;12.30;99.90;;;;;;5140383;27;19908;-42
2023/07/25 03:30:25;;;;;;;;;;;12.30;99.90;;;;;;5140358;27;19914;-47
2023/07/25 03:32:50;;;;;;;;;;;12.40;99.90;;;;;;5139517;27;19908;-43
2023/07/25 03:35:16;;;;;;;;;;;12.40;99.90;;;;;;5140378;27;20069;-43
2023/07/25 03:37:41;;;;;;;;;;;12.40;99.90;;;;;;5140059;27;20327;-45
2023/07/25 03:40:07;;;;;;;;;;;12.50;99.90;;;;;;5139444;27;19976;-43
2023/07/25 03:42:32;;;;;;;;;;;12.50;99.90;;;;;;5139757;27;19926;-42
2023/07/25 03:44:58;;;;;;;;;;;12.50;99.90;;;;;;5140257;27;19937;-42
2023/07/25 03:47:23;;;;;;;;;;;12.50;99.90;;;;;;5139446;27;19914;-45
2023/07/25 03:49:49;;;;;;;;;;;12.50;99.90;;;;;;5140142;27;19961;-47
2023/07/25 03:52:15;;;;;;;;;;;12.50;99.90;;;;;;5139849;27;19917;-45
2023/07/25 03:54:42;;;;;;;;;;;12.50;99.90;;;;;;5138576;27;20308;-43
2023/07/25 03:57:08;;;;;;;;;;;12.50;99.90;;;;;;5140065;27;19953;-42
2023/07/25 03:59:33;;;;;;;;;;;12.50;99.90;;;;;;5140038;27;19912;-45
2023/07/25 04:01:59;;;;;;;;;;;12.50;99.90;;;;;;5139094;27;19957;-44
2023/07/25 04:04:24;;;;;;;;;;;12.50;99.90;;;;;;5139994;27;20251;-44
2023/07/25 04:06:49;;;;;;;;;;;12.50;99.90;;;;;;5139970;27;19933;-44
2023/07/25 04:09:15;;;;;;;;;;;12.60;99.90;;;;;;5139224;27;19915;-45
2023/07/25 04:11:40;;;;;;;;;;;12.70;99.90;;;;;;5139927;27;19911;-42
2023/07/25 04:14:06;;;;;;;;;;;12.70;99.90;;;;;;5139949;27;19994;-43
2023/07/25 04:16:31;;;;;;;;;;;12.80;99.90;;;;;;5134645;27;19930;-42
2023/07/25 04:18:57;;;;;;;;;;;12.80;99.90;;;;;;5136582;27;20010;-43
2023/07/25 04:21:22;;;;;;;;;;;12.80;99.90;;;;;;5136578;27;20266;-42
2023/07/25 04:23:48;;;;;;;;;;;12.90;99.90;;;;;;5155099;27;20265;-44
2023/07/25 04:26:13;;;;;;;;;;;12.90;99.90;;;;;;5157343;27;19915;-43
2023/07/25 04:28:39;;;;;;;;;;;13.00;99.90;;;;;;5157182;27;20444;-42
2023/07/25 04:31:04;;;;;;;;;;;13.00;99.90;;;;;;5156559;27;19930;-43
2023/07/25 04:33:30;;;;;;;;;;;13.00;99.90;;;;;;5150463;27;19912;-45
2023/07/25 04:35:55;;;;;;;;;;;13.00;99.90;;;;;;5135419;27;19935;-43
2023/07/25 04:38:21;;;;;;;;;;;13.10;99.90;;;;;;5135807;27;19971;-49
2023/07/25 04:40:46;;;;;;;;;;;13.10;99.90;;;;;;5136348;27;19912;-44
2023/07/25 04:43:12;;;;;;;;;;;13.10;99.90;;;;;;5135063;27;19923;-45
2023/07/25 04:45:38;;;;;;;;;;;13.20;99.90;;;;;;5136029;27;19918;-44
2023/07/25 04:48:04;;;;;;;;;;;13.20;99.90;;;;;;5136101;27;19919;-46
2023/07/25 04:50:29;;;;;;;;;;;13.20;99.90;;;;;;5135105;27;20376;-42
2023/07/25 04:52:55;;;;;;;;;;;13.20;99.90;;;;;;5147830;27;19911;-43
2023/07/25 04:55:20;;;;;;;;;;;13.20;99.90;;;;;;5156746;27;19915;-43
2023/07/25 04:57:46;;;;;;;;;;;13.20;99.90;;;;;;5155693;27;19919;-42
2023/07/25 05:00:11;;;;;;;;;;;13.20;99.90;;;;;;5131923;27;19965;-46
2023/07/25 05:02:37;;;;;;;;;;;13.20;99.90;;;;;;5130532;27;19921;-43
2023/07/25 05:05:02;;;;;;;;;;;13.30;99.90;;;;;;5142039;27;19915;-48
2023/07/25 05:07:28;;;;;;;;;;;13.30;99.90;;;;;;5143808;27;19964;-44
2023/07/25 05:09:53;;;;;;;;;;;13.30;99.90;;;;;;5142905;27;20348;-44
2023/07/25 05:12:19;;;;;;;;;;;13.40;99.90;;;;;;5144890;27;19907;-43
2023/07/25 05:14:44;;;;;;;;;;;13.40;99.90;;;;;;5144744;27;20402;-43
2023/07/25 05:17:10;;;;;;;;;;;13.50;99.90;;;;;;5144224;27;19911;-44
2023/07/25 05:19:35;;;;;;;;;;;13.50;99.90;;;;;;5144794;27;20273;-45
2023/07/25 05:22:00;;;;;;;;;;;13.50;99.90;;;;;;5144951;27;19907;-44
2023/07/25 05:24:26;;;;;;;;;;;13.50;99.90;;;;;;5144521;27;20247;-43
2023/07/25 05:26:51;;;;;;;;;;;13.50;99.90;;;;;;5142796;27;19914;-44
2023/07/25 05:29:17;;;;;;;;;;;13.50;99.90;;;;;;5145502;27;20043;-42
2023/07/25 05:31:43;;;;;;;;;;;13.50;99.90;;;;;;5143975;27;19912;-42
2023/07/25 05:34:08;;;;;;;;;;;13.50;99.90;;;;;;5142250;27;19965;-43
2023/07/25 05:36:34;;;;;;;;;;;13.50;99.90;;;;;;5135743;27;19919;-43
2023/07/25 05:38:59;;;;;;;;;;;13.50;99.90;;;;;;5143285;27;19922;-42
2023/07/25 05:41:25;;;;;;;;;;;13.40;99.90;;;;;;5143882;27;19919;-43
2023/07/25 05:43:50;;;;;;;;;;;13.40;99.90;;;;;;5137271;27;20017;-43
2023/07/25 05:46:16;;;;;;;;;;;13.40;99.90;;;;;;5133958;27;19953;-43
2023/07/25 05:48:41;;;;;;;;;;;13.40;99.90;;;;;;5127833;27;19970;-46
2023/07/25 05:51:06;;;;;;;;;;;13.40;99.90;;;;;;5126882;27;20280;-43
2023/07/25 05:53:32;;;;;;;;;;;13.40;99.90;;;;;;5129931;27;19915;-44
2023/07/25 05:55:57;;;;;;;;;;;13.50;99.90;;;;;;5134766;27;19912;-44
2023/07/25 05:58:23;;;;;;;;;;;13.50;99.90;;;;;;5121447;27;19920;-46
2023/07/25 06:00:48;;;;;;;;;;;13.60;99.90;;;;;;5133558;27;19907;-43
2023/07/25 06:03:15;;;;;;;;;;;13.60;99.90;;;;;;5127336;27;20329;-43
2023/07/25 06:05:40;;;;;;;;;;;13.60;99.90;;;;;;5122789;27;19957;-42
2023/07/25 06:08:06;;;;;;;;;;;13.70;99.90;;;;;;5125597;27;19951;-44
2023/07/25 06:10:31;;;;;;;;;;;13.80;99.90;;;;;;5124805;27;20288;-44
2023/07/25 06:12:57;;;;;;;;;;;13.80;99.90;;;;;;5123487;27;19920;-42
2023/07/25 06:15:23;;;;;;;;;;;13.80;99.90;;;;;;5119709;27;19907;-48
2023/07/25 06:17:49;;;;;;;;;;;13.90;99.90;;;;;;5134322;27;20006;-44
2023/07/25 06:20:14;;;;;;;;;;;13.90;99.90;;;;;;5121743;27;19942;-44
2023/07/25 06:22:40;;;;;;;;;;;14.00;99.90;;;;;;5122220;27;19950;-43
2023/07/25 06:25:07;;;;;;;;;;;14.00;99.90;;;;;;5132659;27;19912;-46
2023/07/25 06:27:33;;;;;;;;;;;14.10;99.90;;;;;;5122654;27;20412;-43
2023/07/25 06:29:58;;;;;;;;;;;14.10;99.90;;;;;;5126821;27;19955;-43
2023/07/25 06:32:24;;;;;;;;;;;14.10;99.90;;;;;;5122676;27;20278;-44
2023/07/25 06:34:49;;;;;;;;;;;14.20;99.90;;;;;;5123967;27;19968;-43
2023/07/25 06:37:15;;;;;;;;;;;14.20;99.90;;;;;;5120253;27;19924;-47
2023/07/25 06:39:40;;;;;;;;;;;14.30;99.90;;;;;;5132429;27;20320;-44
2023/07/25 06:42:06;;;;;;;;;;;14.30;99.90;;;;;;5123563;27;19920;-42
2023/07/25 06:44:31;;;;;;;;;;;14.50;99.90;;;;;;5126006;27;20380;-44
2023/07/25 06:46:57;;;;;;;;;;;14.50;99.90;;;;;;5125319;27;20355;-42
2023/07/25 06:49:22;;;;;;;;;;;14.60;99.90;;;;;;5132590;27;19998;-43
2023/07/25 06:51:48;;;;;;;;;;;14.60;99.90;;;;;;5126630;27;19919;-44
2023/07/25 06:54:14;;;;;;;;;;;14.70;99.90;;;;;;5122164;27;20427;-44
2023/07/25 06:56:39;;;;;;;;;;;14.80;99.90;;;;;;5129180;27;19927;-43
2023/07/25 06:59:05;;;;;;;;;;;14.80;99.90;;;;;;5132554;27;19955;-42
2023/07/25 07:01:30;;;;;;;;;;;14.90;99.90;;;;;;5128839;27;19919;-44
2023/07/25 07:03:56;;;;;;;;;;;14.90;99.90;;;;;;5132977;28;20344;-44
2023/07/25 07:06:21;;;;;;;;;;;14.90;99.90;;;;;;5133546;28;19937;-42
2023/07/25 07:08:47;;;;;;;;;;;15.00;99.90;;;;;;5133703;28;20397;-42
2023/07/25 07:11:12;;;;;;;;;;;15.00;99.90;;;;;;5132932;28;19907;-43
2023/07/25 07:13:38;;;;;;;;;;;15.10;99.90;;;;;;5122119;28;20366;-43
2023/07/25 07:16:03;;;;;;;;;;;15.10;99.90;;;;;;5126684;28;19907;-44
2023/07/25 07:18:29;;;;;;;;;;;15.20;99.90;;;;;;5132794;28;19915;-45
2023/07/25 07:20:54;;;;;;;;;;;15.20;99.90;;;;;;5132802;27;20067;-42
2023/07/25 07:23:20;;;;;;;;;;;15.20;99.90;;;;;;5133513;28;19915;-44
2023/07/25 07:25:45;;;;;;;;;;;15.30;99.90;;;;;;5131729;28;19908;-42
2023/07/25 07:28:11;;;;;;;;;;;15.30;99.90;;;;;;5112881;28;19907;-44
2023/07/25 07:30:37;;;;;;;;;;;15.30;99.90;;;;;;5127955;28;20327;-43
2023/07/25 07:33:02;;;;;;;;;;;15.40;99.90;;;;;;5132550;28;20284;-44
2023/07/25 07:35:28;;;;;;;;;;;15.40;99.90;;;;;;5118789;27;19981;-49
2023/07/25 07:37:53;;;;;;;;;;;15.40;99.90;;;;;;5120133;27;19919;-43
2023/07/25 07:40:19;;;;;;;;;;;15.40;99.90;;;;;;5120962;27;20373;-42
2023/07/25 07:42:44;;;;;;;;;;;15.40;99.90;;;;;;5147809;27;20006;-43
2023/07/25 07:45:10;;;;;;;;;;;15.40;99.90;;;;;;5134136;28;19914;-44
2023/07/25 07:47:35;;;;;;;;;;;15.50;99.90;;;;;;5133427;28;19911;-43
2023/07/25 07:50:01;;;;;;;;;;;15.60;99.90;;;;;;5135547;27;19911;-44
2023/07/25 07:52:26;;;;;;;;;;;15.60;99.90;;;;;;5118116;27;19971;-45
2023/07/25 07:54:52;;;;;;;;;;;15.70;99.90;;;;;;5116996;28;19912;-43
2023/07/25 07:57:17;;;;;;;;;;;15.80;99.90;;;;;;5118643;27;19981;-46
2023/07/25 07:59:43;;;;;;;;;;;15.90;99.90;;;;;;5117270;27;19911;-42
2023/07/25 08:02:09;;;;;;;;;;;15.90;99.90;;;;;;5144196;27;20260;-42
2023/07/25 08:04:34;;;;;;;;;;;16.10;99.90;;;;;;5138180;27;20357;-44
2023/07/25 08:07:00;;;;;;;;;;;16.20;99.90;;;;;;5137074;27;19960;-44
2023/07/25 08:09:25;;;;;;;;;;;16.30;99.90;;;;;;5141798;27;20055;-46
2023/07/25 08:11:51;;;;;;;;;;;16.30;99.90;;;;;;5158225;27;20254;-44
2023/07/25 08:14:16;;;;;;;;;;;16.40;99.90;;;;;;5157595;27;19911;-46
2023/07/25 08:16:42;;;;;;;;;;;16.40;99.90;;;;;;5158194;27;19998;-45
2023/07/25 08:19:07;;;;;;;;;;;16.50;99.90;;;;;;5158044;27;20242;-41
2023/07/25 08:21:33;;;;;;;;;;;16.40;99.90;;;;;;5157150;27;20257;-42
2023/07/25 08:23:58;;;;;;;;;;;16.40;99.90;;;;;;5158213;27;19921;-43
2023/07/25 08:26:24;;;;;;;;;;;16.50;99.90;;;;;;5157697;27;19907;-42
2023/07/25 08:28:49;;;;;;;;;;;16.40;99.90;;;;;;5157590;27;19986;-43
2023/07/25 08:31:15;;;;;;;;;;;16.60;99.90;;;;;;5157756;27;19917;-44
2023/07/25 08:33:42;;;;;;;;;;;16.70;99.90;;;;;;5157048;27;19907;-44
2023/07/25 08:36:08;;;;;;;;;;;16.80;99.90;;;;;;5156076;27;19907;-43
2023/07/25 08:38:34;;;;;;;;;;;17.00;99.90;;;;;;5157312;27;19915;-48
2023/07/25 08:41:08;;;;;;;;;;;17.10;99.90;;;;;;5157901;27;20427;-43
2023/07/25 08:43:37;;;;;;;;;;;17.10;99.90;;;;;;5156816;27;19961;-43
2023/07/25 08:46:05;;;;;;;;;;;17.30;99.90;;;;;;5157653;27;19907;-43
2023/07/25 08:48:31;;;;;;;;;;;17.40;99.90;;;;;;5156788;27;19959;-43
2023/07/25 08:50:58;;;;;;;;;;;17.50;99.90;;;;;;5148283;27;19915;-42
2023/07/25 08:53:24;;;;;;;;;;;17.50;99.90;;;;;;5135916;27;19915;-43
2023/07/25 08:55:51;;;;;;;;;;;17.40;99.90;;;;;;5135821;27;19912;-43
2023/07/25 08:58:17;;;;;;;;;;;17.30;99.90;;;;;;5135142;27;20018;-43
2023/07/25 09:00:43;;;;;;;;;;;17.30;99.90;;;;;;5135451;27;20014;-43
2023/07/25 09:03:08;;;;;;;;;;;17.30;99.90;;;;;;5135157;27;19908;-50
2023/07/25 09:05:34;;;;;;;;;;;17.30;99.90;;;;;;5122430;27;19923;-43
2023/07/25 09:08:00;;;;;;;;;;;17.50;99.90;;;;;;5135605;27;20425;-42
2023/07/25 09:10:28;;;;;;;;;;;17.60;99.90;;;;;;5134744;27;19918;-43
2023/07/25 09:12:54;;;;;;;;;;;17.70;99.90;;;;;;5126018;27;20329;-47
2023/07/25 09:15:19;;;;;;;;;;;17.80;99.90;;;;;;5123079;27;19916;-42
2023/07/25 09:17:45;;;;;;;;;;;17.80;99.90;;;;;;5114190;27;19926;-43
2023/07/25 09:20:10;;;;;;;;;;;17.90;99.90;;;;;;5114985;27;20408;-44
2023/07/25 09:22:36;;;;;;;;;;;17.90;99.90;;;;;;5119756;27;19950;-42
2023/07/25 09:25:06;;;;;;;;;;;18.00;99.90;;;;;;5114740;27;19912;-44
2023/07/25 09:27:32;;;;;;;;;;;18.00;99.90;;;;;;5116179;27;20029;-43
2023/07/25 09:29:57;;;;;;;;;;;18.00;99.90;;;;;;5114387;27;20465;-42
2023/07/25 09:32:24;;;;;;;;;;;18.00;99.90;;;;;;5118322;27;19918;-42
2023/07/25 09:35:16;;;;;;;;;;;18.00;99.90;;;;;;5135119;27;20095;-44
2023/07/25 09:37:41;;;;;;;;;;;18.00;99.90;;;;;;5131255;27;20006;-42
2023/07/25 09:40:10;;;;;;;;;;;17.80;99.90;;;;;;5130137;27;19998;-43
2023/07/25 09:42:40;;;;;;;;;;;17.80;99.90;;;;;;5120839;27;19919;-44
2023/07/25 09:45:07;;;;;;;;;;;17.90;99.90;;;;;;5121861;27;19924;-45
2023/07/25 09:47:33;;;;;;;;;;;18.00;99.90;;;;;;5154864;27;20347;-43
2023/07/25 09:49:58;;;;;;;;;;;18.10;99.90;;;;;;5155598;27;20383;-43
2023/07/25 09:52:24;;;;;;;;;;;18.30;99.90;;;;;;5154826;27;19914;-47
2023/07/25 09:54:50;;;;;;;;;;;18.30;99.90;;;;;;5155357;27;20322;-43
2023/07/25 09:57:15;;;;;;;;;;;18.40;99.90;;;;;;5154729;27;20413;-43
2023/07/25 09:59:41;;;;;;;;;;;18.40;99.90;;;;;;5154285;27;19915;-42
2023/07/25 10:02:08;;;;;;;;;;;18.40;99.90;;;;;;5155336;27;19907;-43
2023/07/25 10:04:36;;;;;;;;;;;18.50;99.90;;;;;;5155136;27;19977;-42
2023/07/25 10:07:01;;;;;;;;;;;18.70;99.90;;;;;;5153122;27;19916;-48
2023/07/25 10:09:28;;;;;;;;;;;18.80;99.90;;;;;;5119682;27;19912;-44
2023/07/25 10:11:53;;;;;;;;;;;19.00;99.90;;;;;;5130505;27;19954;-43
2023/07/25 10:14:19;;;;;;;;;;;19.00;99.90;;;;;;5132307;27;19950;-44
2023/07/25 10:16:45;;;;;;;;;;;19.00;99.90;;;;;;5132041;27;19917;-45
2023/07/25 10:19:10;;;;;;;;;;;18.90;99.90;;;;;;5120520;27;19927;-42
2023/07/25 10:21:49;;;;;;;;;;;18.70;99.90;;;;;;5119817;27;19912;-42
2023/07/25 10:24:15;;;;;;;;;;;18.70;99.90;;;;;;5114112;27;19951;-46
2023/07/25 10:26:57;;;;;;;;;;;18.80;99.90;;;;;;5118327;27;20386;-41
2023/07/25 10:29:40;;;;;;;;;;;18.90;99.90;;;;;;5117016;27;20010;-43
2023/07/25 10:32:06;;;;;;;;;;;19.10;99.90;;;;;;5114524;27;19955;-43
2023/07/25 10:34:52;;;;;;;;;;;19.40;99.90;;;;;;5114283;28;19939;-46
2023/07/25 10:37:25;;;;;;;;;;;19.50;99.90;;;;;;5114214;27;19915;-46
2023/07/25 10:40:10;;;;;;;;;;;19.60;99.90;;;;;;5113722;27;20291;-42
2023/07/25 10:42:48;;;;;;;;;;;19.70;99.90;;;;;;5115263;27;19931;-47
2023/07/25 10:45:28;;;;;;;;;;;19.60;99.90;;;;;;5131112;27;19974;-42
2023/07/25 10:47:54;;;;;;;;;;;19.40;99.90;;;;;;5113757;28;19942;-43
2023/07/25 10:50:24;;;;;;;;;;;19.20;99.90;;;;;;5112551;27;20396;-42
2023/07/25 10:52:50;;;;;;;;;;;19.10;99.90;;;;;;5117073;27;19955;-42
2023/07/25 10:55:15;;;;;;;;;;;19.20;99.90;;;;;;5117449;28;19951;-44
2023/07/25 10:57:41;;;;;;;;;;;19.30;99.90;;;;;;5113667;28;20411;-43
2023/07/25 11:00:10;;;;;;;;;;;19.40;99.90;;;;;;5116507;27;19915;-45
2023/07/25 11:02:38;;;;;;;;;;;19.60;99.90;;;;;;5125487;28;19939;-42
2023/07/25 11:05:13;;;;;;;;;;;19.60;99.90;;;;;;5124902;28;19912;-48
2023/07/25 11:07:58;;;;;;;;;;;19.50;99.90;;;;;;5113633;28;20298;-45
2023/07/25 11:10:25;;;;;;;;;;;19.40;99.90;;;;;;5112984;28;19915;-41
2023/07/25 11:12:52;;;;;;;;;;;19.30;99.90;;;;;;5113391;28;19918;-44
2023/07/25 11:15:17;;;;;;;;;;;19.20;99.90;;;;;;5117713;27;20445;-43
2023/07/25 11:17:43;;;;;;;;;;;19.20;99.90;;;;;;5116847;27;20041;-42
2023/07/25 11:20:12;;;;;;;;;;;19.20;99.90;;;;;;5127994;28;19914;-43
2023/07/25 11:22:37;;;;;;;;;;;19.50;99.90;;;;;;5119827;28;19919;-42
2023/07/25 11:25:09;;;;;;;;;;;19.70;99.90;;;;;;5115791;28;19911;-44
2023/07/25 11:27:39;;;;;;;;;;;19.80;99.90;;;;;;5122703;27;19919;-42
2023/07/25 11:30:09;;;;;;;;;;;19.60;99.90;;;;;;5117103;28;20379;-43
2023/07/25 11:32:34;;;;;;;;;;;19.40;99.90;;;;;;5116085;28;20016;-41
2023/07/25 11:35:00;;;;;;;;;;;19.30;99.90;;;;;;5117474;27;20382;-43
2023/07/25 11:37:26;;;;;;;;;;;19.20;99.90;;;;;;5121231;27;19964;-43
2023/07/25 11:39:51;;;;;;;;;;;19.20;99.90;;;;;;5124104;27;19994;-44
2023/07/25 11:42:17;;;;;;;;;;;19.40;99.90;;;;;;5137090;27;20382;-41
2023/07/25 11:44:44;;;;;;;;;;;19.60;99.90;;;;;;5137252;27;20282;-42
2023/07/25 11:47:10;;;;;;;;;;;19.80;99.90;;;;;;5116192;28;19915;-43
2023/07/25 11:49:36;;;;;;;;;;;20.00;99.90;;;;;;5134815;27;19915;-42
2023/07/25 11:52:02;;;;;;;;;;;20.20;99.90;;;;;;5152244;27;19956;-45
2023/07/25 11:54:28;;;;;;;;;;;20.20;99.90;;;;;;5137034;27;19912;-43
2023/07/25 11:56:53;;;;;;;;;;;20.10;99.90;;;;;;5144229;27;19964;-44
2023/07/25 11:59:19;;;;;;;;;;;20.30;99.90;;;;;;5121281;27;20467;-42
2023/07/25 12:01:44;;;;;;;;;;;20.40;99.90;;;;;;5141094;27;19911;-42
2023/07/25 12:04:15;;;;;;;;;;;20.60;99.90;;;;;;5119881;27;19916;-43
2023/07/25 12:06:41;;;;;;;;;;;20.80;99.90;;;;;;5133445;27;19915;-42
2023/07/25 12:09:06;;;;;;;;;;;20.80;99.90;;;;;;5126969;27;19912;-42
2023/07/25 12:11:39;;;;;;;;;;;20.60;99.90;;;;;;5136614;27;19947;-43
2023/07/25 12:14:08;;;;;;;;;;;20.40;99.90;;;;;;5116845;27;19916;-44
2023/07/25 12:16:35;;;;;;;;;;;20.20;99.90;;;;;;5139244;27;19990;-43
2023/07/25 12:19:06;;;;;;;;;;;20.10;99.90;;;;;;5136762;27;19922;-43
2023/07/25 12:21:33;;;;;;;;;;;20.00;99.90;;;;;;5133923;27;19911;-41
2023/07/25 12:24:00;;;;;;;;;;;19.90;99.90;;;;;;5136390;27;19907;-42
2023/07/25 12:26:26;;;;;;;;;;;19.90;99.90;;;;;;5136539;27;19918;-44
2023/07/25 12:28:52;;;;;;;;;;;20.00;99.90;;;;;;5135711;27;20286;-43
2023/07/25 12:31:18;;;;;;;;;;;20.00;99.90;;;;;;5136381;27;19914;-42
2023/07/25 12:33:44;;;;;;;;;;;20.10;99.90;;;;;;5136410;27;19911;-42
2023/07/25 12:36:10;;;;;;;;;;;20.10;99.90;;;;;;5114118;28;20137;-43
2023/07/25 12:38:36;;;;;;;;;;;20.20;99.90;;;;;;5115465;28;19931;-43
2023/07/25 12:41:02;;;;;;;;;;;20.30;99.90;;;;;;5115757;28;19908;-43
2023/07/25 12:43:28;;;;;;;;;;;20.50;99.90;;;;;;5114886;28;19919;-43
2023/07/25 12:45:54;;;;;;;;;;;20.70;99.90;;;;;;5115628;28;20347;-43
2023/07/25 12:48:19;;;;;;;;;;;20.70;99.90;;;;;;5120300;27;20286;-43
2023/07/25 12:50:45;;;;;;;;;;;20.60;99.90;;;;;;5125952;27;19915;-42
2023/07/25 12:53:11;;;;;;;;;;;20.60;99.90;;;;;;5115610;28;19915;-45
2023/07/25 12:55:36;;;;;;;;;;;20.50;99.90;;;;;;5114569;28;19915;-46
2023/07/25 12:58:02;;;;;;;;;;;20.60;99.90;;;;;;5115214;28;19941;-51
2023/07/25 13:00:28;;;;;;;;;;;20.70;99.90;;;;;;5115231;28;19961;-42
2023/07/25 13:02:53;;;;;;;;;;;20.80;99.90;;;;;;5114489;28;19947;-42
2023/07/25 13:05:19;;;;;;;;;;;20.70;99.90;;;;;;5115206;28;19976;-43
2023/07/25 13:07:44;;;;;;;;;;;20.50;99.90;;;;;;5115104;28;19946;-42
2023/07/25 13:10:13;;;;;;;;;;;20.30;99.90;;;;;;5114429;28;19958;-43
2023/07/25 13:12:39;;;;;;;;;;;20.10;99.90;;;;;;5114965;28;20378;-42
2023/07/25 13:15:05;;;;;;;;;;;20.00;99.90;;;;;;5114475;28;20347;-42
2023/07/25 13:17:32;;;;;;;;;;;19.90;99.90;;;;;;5114021;28;19986;-44
2023/07/25 13:19:57;;;;;;;;;;;19.70;99.90;;;;;;5122111;27;20389;-45
2023/07/25 13:22:23;;;;;;;;;;;19.50;99.90;;;;;;5147957;27;19957;-43
2023/07/25 13:24:48;;;;;;;;;;;19.30;99.90;;;;;;5134643;27;19908;-44
2023/07/25 13:27:14;;;;;;;;;;;19.20;99.90;;;;;;5135189;27;19919;-44
2023/07/25 13:29:39;;;;;;;;;;;19.00;99.90;;;;;;5135062;27;19911;-43
2023/07/25 13:32:05;;;;;;;;;;;18.90;99.90;;;;;;5127951;27;19911;-42
2023/07/25 13:34:30;;;;;;;;;;;18.70;99.90;;;;;;5119670;27;19908;-45
2023/07/25 13:36:56;;;;;;;;;;;18.50;99.90;;;;;;5114761;28;20285;-42
2023/07/25 13:39:21;;;;;;;;;;;18.30;99.90;;;;;;5114038;28;19916;-42
2023/07/25 13:41:47;;;;;;;;;;;18.00;99.90;;;;;;5114055;28;19908;-44
2023/07/25 13:44:12;;;;;;;;;;;17.80;99.90;;;;;;5114471;28;19907;-42
2023/07/25 13:46:38;;;;;;;;;;;17.60;99.90;;;;;;5113626;28;19919;-42
2023/07/25 13:49:03;;;;;;;;;;;17.50;99.90;;;;;;5114196;28;19908;-43
2023/07/25 13:51:28;;;;;;;;;;;17.40;99.90;;;;;;5145002;27;19964;-42
2023/07/25 13:53:54;;;;;;;;;;;17.40;99.90;;;;;;5155073;27;20373;-48
2023/07/25 13:56:20;;;;;;;;;;;17.30;99.90;;;;;;5155296;27;19907;-43
2023/07/25 13:58:46;;;;;;;;;;;17.40;99.90;;;;;;5154350;27;19923;-41
2023/07/25 14:01:12;;;;;;;;;;;17.50;99.90;;;;;;5142356;27;19964;-43
2023/07/25 14:03:38;;;;;;;;;;;17.50;99.90;;;;;;5134486;27;19950;-42
2023/07/25 14:06:04;;;;;;;;;;;17.50;99.90;;;;;;5133904;27;19951;-43
2023/07/25 14:08:30;;;;;;;;;;;17.60;99.90;;;;;;5134485;27;20417;-45
2023/07/25 14:10:55;;;;;;;;;;;17.70;99.90;;;;;;5134627;27;19998;-42